»·PEaware :: N733WB L52-L88

N733WB :: L52-L88

FLIGHT INFORMATION

Flight Status: Arrived
Operator: Privately registered:
United States
More flights under this callsign
Pilot: Jeremy K. (15416)
Aircraft: CESSNA 172 SKYHAWK
(C172)
More flights by this aircraft type
Origin: L52 Oceano Co
United States
Destination: L88 New Cuyama
United States
More flights between these airports :: More routes between these airports
Route:
File this flight plan on PilotEdge
Remarks: CAT 01
Altitude:
(Current/Filed)
75,000ft
Speed:
(Current/Filed)
120kts
Departed: 20-May-17 08:25 AM
Arrived: 20-May-17 09:17 AM
Distance/Time
Traveled:
47nm/0:51
Distance/Time
To Go:
Arrived

Flight Plot

Page will automatically refresh every two minutes.


Map Options




Map Legend


Flown Route
Filed Route
Departure Airport
Arrival Airport
Navaid (VOR, NDB)
Fix

Horizontal Profiles

Position Reports

Time Latitude Longitude Heading Altitude Ground
Speed
20-May-17 08:18 35.102575 -120.623012 295 18ft 0kts
20-May-17 08:19 35.102775 -120.623733 216 18ft 0kts
20-May-17 08:20 35.102775 -120.623733 215 18ft 0kts
20-May-17 08:21 35.102696 -120.623810 216 18ft 1kts
20-May-17 08:22 35.101874 -120.623876 122 18ft 9kts
20-May-17 08:23 35.100155 -120.620637 125 18ft 16kts
20-May-17 08:24 35.099889 -120.620132 118 18ft 0kts
20-May-17 08:25 35.099519 -120.619400 27 18ft 0kts
20-May-17 08:26 35.099919 -120.619227 302 18ft 0kts
20-May-17 08:27 35.104644 -120.628040 301 136ft 92kts
20-May-17 08:28 35.109528 -120.649018 204 1001ft 81kts
20-May-17 08:29 35.096630 -120.648836 101 1717ft 77kts
20-May-17 08:30 35.096449 -120.631482 103 2287ft 82kts
20-May-17 08:31 35.093860 -120.619043 109 2890ft 64kts
20-May-17 08:32 35.091431 -120.607358 107 3237ft 79kts
20-May-17 08:33 35.091863 -120.590174 96 3846ft 75kts
20-May-17 08:34 35.091157 -120.571698 100 4457ft 74kts
20-May-17 08:35 35.089452 -120.552876 103 5061ft 74kts
20-May-17 08:36 35.086969 -120.533177 105 5673ft 73kts
20-May-17 08:37 35.083759 -120.511328 107 6326ft 73kts
20-May-17 08:38 35.081126 -120.494619 105 6805ft 72kts
20-May-17 08:39 35.078450 -120.478124 108 7244ft 73kts
20-May-17 08:40 35.075684 -120.461453 108 7685ft 74kts
20-May-17 08:41 35.073109 -120.445647 105 7694ft 112kts
20-May-17 08:42 35.069961 -120.425197 107 7541ft 127kts
20-May-17 08:43 35.065555 -120.400751 106 7509ft 126kts
20-May-17 08:44 35.061853 -120.379503 106 7510ft 127kts
20-May-17 08:45 35.057781 -120.355892 105 7509ft 128kts
20-May-17 08:46 35.053598 -120.331520 106 7509ft 128kts
20-May-17 08:47 35.050379 -120.312734 106 7509ft 128kts
20-May-17 08:48 35.046399 -120.289502 106 7509ft 128kts
20-May-17 08:49 35.041819 -120.263633 107 7509ft 128kts
20-May-17 08:50 35.038462 -120.245644 107 7509ft 128kts
20-May-17 08:51 35.035151 -120.227466 106 7509ft 128kts
20-May-17 08:52 35.031922 -120.209026 106 7509ft 128kts
20-May-17 08:53 35.028638 -120.190035 106 7509ft 128kts
20-May-17 08:54 35.025309 -120.170724 106 7508ft 128kts
20-May-17 08:55 35.019897 -120.139359 106 7509ft 128kts
20-May-17 08:56 35.015406 -120.113357 106 7509ft 128kts
20-May-17 08:57 35.010495 -120.084969 106 7509ft 128kts
20-May-17 08:58 35.005820 -120.057973 106 7509ft 128kts
20-May-17 08:59 35.000308 -120.026199 106 7509ft 128kts
20-May-17 09:00 34.995801 -120.000268 106 7509ft 128kts
20-May-17 09:01 34.991859 -119.977625 106 7509ft 128kts
20-May-17 09:02 34.987955 -119.955197 106 7509ft 128kts
20-May-17 09:03 34.984046 -119.932771 106 7509ft 128kts
20-May-17 09:04 34.980134 -119.910346 106 7509ft 128kts
20-May-17 09:05 34.976234 -119.888030 106 7509ft 128kts
20-May-17 09:06 34.972533 -119.866689 106 7408ft 134kts
20-May-17 09:07 34.967600 -119.838666 106 7103ft 140kts
20-May-17 09:08 34.962736 -119.811403 106 6805ft 140kts
20-May-17 09:09 34.956671 -119.785475 111 6471ft 141kts
20-May-17 09:10 34.948973 -119.758766 113 6031ft 142kts
20-May-17 09:11 34.942408 -119.735941 113 5399ft 109kts
20-May-17 09:12 34.936158 -119.713913 113 4539ft 104kts
20-May-17 09:13 34.929786 -119.691962 113 3663ft 102kts
20-May-17 09:14 34.924561 -119.674136 112 3206ft 77kts
20-May-17 09:15 34.921312 -119.662457 112 3138ft 75kts
20-May-17 09:16 34.920065 -119.645520 58 3099ft 99kts
20-May-17 09:17 34.931814 -119.649144 255 2859ft 117kts
20-May-17 09:18 34.935594 -119.674935 292 2357ft 72kts
20-May-17 09:19 34.941008 -119.688206 296 2207ft 32kts
20-May-17 09:20 34.942883 -119.690610 193 2207ft 1kts
20-May-17 09:21 34.942864 -119.690621 204 2207ft 0kts
20-May-17 09:22 34.942864 -119.690621 204 2207ft 0kts
20-May-17 09:23 34.942864 -119.690621 204 2207ft 0kts
20-May-17 09:24 34.942864 -119.690621 204 2207ft 0kts
20-May-17 09:25 34.942864 -119.690621 204 2207ft 0kts
20-May-17 09:26 34.942864 -119.690621 204 2207ft 0kts
20-May-17 09:27 34.942864 -119.690621 204 2207ft 0kts
20-May-17 09:28 34.942864 -119.690621 204 2207ft 0kts
20-May-17 09:29 34.942864 -119.690621 204 2207ft 0kts
20-May-17 09:30 34.942864 -119.690621 204 2207ft 0kts
20-May-17 09:31 34.942572 -119.691030 137 2207ft 0kts
20-May-17 09:32 34.942571 -119.691030 138 2207ft 0kts
20-May-17 09:33 34.942536 -119.690992 145 2207ft 0kts

Navigation Log

Ident Type
Flight plan parsing failed, navigation log unavailable